Kezdőlap
METAR-TAF:

METAR-TAF

Repülőterek :

Davenport Municipal Airport

Davenport, Iowa, Amerikai Egyesült Államok

földrajzi szélesség: 41-36-50N, földrajzi hosszúság: 090-35-29W, magasság: 229 m

Jelenlegi meteorológiai megfigyelések

A jelentés 1 órával és 2 perccel ezelõtt készült, 17:52 UTC
Különbözõ irányokból fújó szél 3 kt
Hőmérséklet 10°C
Páratartalom 57%
Légköri nyomás 1019 hPa
Látótávolság: 16.1 km
Kevés felhő 8000 lábon
Kevés felhő 11000 lábon

METAR: KDVN 011752Z AUTO VRB03KT 10SM FEW080 FEW110 10/02 A3009 RMK AO2 SLP190 T01000017 10100 20006 58011

Idő: 13:54 (18:54 UTC)


TAF: hiányzik

Meteorológiai megfigyelések és előrejelzések több, mint 4000 repülőtéren (METAR és TAF jelentéseket).

A térképen piros és sárga pontok jelzik az elérhető meteorológiai állomásokat.

Mozgassa az egeret a pont fölött, hogy megjelenjen az állomás neve.

Azután kattintson az időjárási megfigyelések és előrejelzések megtekintéséhez.

A térkép megváltoztatása: kattintson a fekete keresztel jelölt zöld gombra ráközelítéshez, a vonallal jelölt zöld gombra távolításhoz, vagy a zöld nyilakra a szomszédos térképek eléréséhez.


METAR-TAF: